Pagrindinis puslapis
METAR-TAF:

METAR-TAF

Oro uostai :

Jasai, Rumunija

platuma: 47-10N, ilguma: 027-38E, Aukštis: 102 m

Dabartinis oras

Ataskaita buvo paskelbta 28 minutes, ne 04:00 UTC
Vėjas 13 kt iš Rytų/Pietryčių
Temperatūra 11°C
Drėgmė 94%
Slėgis 1017 hPa
Matomumas: 9000 m
Išsisklaidę debesys ne aukštis 1200 ft

METAR: LRIA 130400Z 11013KT 9000 SCT012 11/10 Q1017

Laikas: 06:28 (04:28 UTC)

Prognozė

Ataskaita buvo paskelbta 2 valandos ir 28 minutes, ne 02:00 UTC
Prognozė galioja nuo 13 metu 03 UTC su 13 metu 12 UTC
Vėjas 14 kt iš Pietryčių
Matomumas 10 km arba daugiau
nėra debesų žemiau 1500 m ir nėra kamuolinių lietaus debesų
Laikinai
nuo 13 metu 03 UTC su 13 metu 06 UTC
Matomumas: 3000 m
Su prošvaistėmis ne aukštis 1000 ft
rūkana

TAF: LRIA 130200Z 1303/1312 13014KT CAVOK TEMPO 1303/1306 3000 BR BKN010

Orai ataskaitas ir orų prognozės (METAR, TAF).

turimą stotys yra geltonos ir raudonos taškus žemėlapyje.

Perkelti pele per norėdami pamatyti stoties vardą.

Tada spustelėkite, norėdami matyti oro stebėjimo ir prognozės.

Norėdami pakeisti žemėlapį: spustelėkite ant žalios mygtukų su juodo kryžiaus žemyn,; žalią mygtuką su brūkšneliu, jei norite nutolinti; arba žalių rodyklių gretimoms žemėlapius.


METAR-TAF: